sensor_id;sensor_type;location;lat;lon;timestamp;P1;durP1;ratioP1;P2;durP2;ratioP2
23714;SDS011;12036;50.858;4.472;2023-05-07T00:01:26;9.32;;;4.30;;
23714;SDS011;12036;50.858;4.472;2023-05-07T00:03:52;8.55;;;4.13;;
23714;SDS011;12036;50.858;4.472;2023-05-07T00:06:18;8.15;;;4.15;;
23714;SDS011;12036;50.858;4.472;2023-05-07T00:08:44;11.90;;;4.47;;
23714;SDS011;12036;50.858;4.472;2023-05-07T00:11:10;9.48;;;4.10;;
23714;SDS011;12036;50.858;4.472;2023-05-07T00:13:35;7.10;;;3.80;;
23714;SDS011;12036;50.858;4.472;2023-05-07T00:16:04;8.85;;;4.05;;
23714;SDS011;12036;50.858;4.472;2023-05-07T00:18:30;7.70;;;3.65;;
23714;SDS011;12036;50.858;4.472;2023-05-07T00:20:55;11.40;;;4.15;;
23714;SDS011;12036;50.858;4.472;2023-05-07T00:23:22;6.60;;;4.38;;
23714;SDS011;12036;50.858;4.472;2023-05-07T00:25:48;13.75;;;4.15;;
23714;SDS011;12036;50.858;4.472;2023-05-07T00:28:13;7.55;;;3.80;;
23714;SDS011;12036;50.858;4.472;2023-05-07T00:30:39;10.50;;;4.18;;
23714;SDS011;12036;50.858;4.472;2023-05-07T00:33:05;15.02;;;4.28;;
23714;SDS011;12036;50.858;4.472;2023-05-07T00:35:30;5.85;;;3.53;;
23714;SDS011;12036;50.858;4.472;2023-05-07T00:37:56;9.40;;;3.38;;
23714;SDS011;12036;50.858;4.472;2023-05-07T00:40:21;6.70;;;3.50;;
23714;SDS011;12036;50.858;4.472;2023-05-07T00:42:47;7.70;;;3.33;;
23714;SDS011;12036;50.858;4.472;2023-05-07T00:45:13;8.60;;;3.72;;
23714;SDS011;12036;50.858;4.472;2023-05-07T00:47:40;8.95;;;3.97;;
23714;SDS011;12036;50.858;4.472;2023-05-07T00:50:06;8.60;;;3.92;;
23714;SDS011;12036;50.858;4.472;2023-05-07T00:52:34;7.43;;;3.60;;
23714;SDS011;12036;50.858;4.472;2023-05-07T00:55:02;6.47;;;3.58;;
23714;SDS011;12036;50.858;4.472;2023-05-07T00:57:32;6.32;;;3.63;;
23714;SDS011;12036;50.858;4.472;2023-05-07T01:00:02;10.48;;;3.35;;
23714;SDS011;12036;50.858;4.472;2023-05-07T01:02:33;5.47;;;3.67;;
23714;SDS011;12036;50.858;4.472;2023-05-07T01:05:02;6.78;;;3.80;;
23714;SDS011;12036;50.858;4.472;2023-05-07T01:07:31;6.43;;;4.10;;
23714;SDS011;12036;50.858;4.472;2023-05-07T01:09:58;9.13;;;3.38;;
23714;SDS011;12036;50.858;4.472;2023-05-07T01:12:25;7.20;;;3.58;;
23714;SDS011;12036;50.858;4.472;2023-05-07T01:14:52;6.88;;;3.35;;
23714;SDS011;12036;50.858;4.472;2023-05-07T01:17:18;6.10;;;3.35;;
23714;SDS011;12036;50.858;4.472;2023-05-07T01:19:44;10.73;;;3.60;;
23714;SDS011;12036;50.858;4.472;2023-05-07T01:22:10;6.90;;;3.55;;
23714;SDS011;12036;50.858;4.472;2023-05-07T01:24:36;10.85;;;4.03;;
23714;SDS011;12036;50.858;4.472;2023-05-07T01:27:03;6.05;;;3.30;;
23714;SDS011;12036;50.858;4.472;2023-05-07T01:29:29;6.70;;;3.50;;
23714;SDS011;12036;50.858;4.472;2023-05-07T01:31:58;6.35;;;3.60;;
23714;SDS011;12036;50.858;4.472;2023-05-07T01:34:25;9.32;;;3.55;;
23714;SDS011;12036;50.858;4.472;2023-05-07T01:36:53;8.93;;;3.45;;
23714;SDS011;12036;50.858;4.472;2023-05-07T01:39:21;7.93;;;4.00;;
23714;SDS011;12036;50.858;4.472;2023-05-07T01:41:49;6.28;;;3.72;;
23714;SDS011;12036;50.858;4.472;2023-05-07T01:44:15;9.55;;;4.25;;
23714;SDS011;12036;50.858;4.472;2023-05-07T01:46:43;8.38;;;4.35;;
23714;SDS011;12036;50.858;4.472;2023-05-07T01:49:09;8.90;;;3.38;;
23714;SDS011;12036;50.858;4.472;2023-05-07T01:51:35;10.40;;;3.97;;
23714;SDS011;12036;50.858;4.472;2023-05-07T01:54:01;6.35;;;4.10;;
23714;SDS011;12036;50.858;4.472;2023-05-07T01:56:27;10.60;;;3.90;;
23714;SDS011;12036;50.858;4.472;2023-05-07T01:58:53;6.88;;;3.65;;
23714;SDS011;12036;50.858;4.472;2023-05-07T02:01:18;9.32;;;4.30;;
23714;SDS011;12036;50.858;4.472;2023-05-07T02:03:44;7.60;;;3.88;;
23714;SDS011;12036;50.858;4.472;2023-05-07T02:06:10;7.85;;;3.95;;
23714;SDS011;12036;50.858;4.472;2023-05-07T02:08:35;8.50;;;3.90;;
23714;SDS011;12036;50.858;4.472;2023-05-07T02:11:01;6.63;;;4.00;;
23714;SDS011;12036;50.858;4.472;2023-05-07T02:13:31;10.88;;;4.15;;
23714;SDS011;12036;50.858;4.472;2023-05-07T02:15:59;8.07;;;3.85;;
23714;SDS011;12036;50.858;4.472;2023-05-07T02:18:24;7.05;;;3.92;;
23714;SDS011;12036;50.858;4.472;2023-05-07T02:20:50;9.98;;;3.88;;
23714;SDS011;12036;50.858;4.472;2023-05-07T02:23:16;7.50;;;3.67;;
23714;SDS011;12036;50.858;4.472;2023-05-07T02:25:41;8.70;;;4.25;;
23714;SDS011;12036;50.858;4.472;2023-05-07T02:28:07;9.48;;;4.05;;
23714;SDS011;12036;50.858;4.472;2023-05-07T02:30:33;5.80;;;3.75;;
23714;SDS011;12036;50.858;4.472;2023-05-07T02:32:58;7.28;;;4.07;;
23714;SDS011;12036;50.858;4.472;2023-05-07T02:35:24;10.70;;;3.85;;
23714;SDS011;12036;50.858;4.472;2023-05-07T02:37:50;8.85;;;4.38;;
23714;SDS011;12036;50.858;4.472;2023-05-07T02:40:16;8.65;;;3.90;;
23714;SDS011;12036;50.858;4.472;2023-05-07T02:42:42;8.68;;;4.18;;
23714;SDS011;12036;50.858;4.472;2023-05-07T02:45:07;8.30;;;3.60;;
23714;SDS011;12036;50.858;4.472;2023-05-07T02:47:34;9.07;;;4.43;;
23714;SDS011;12036;50.858;4.472;2023-05-07T02:49:59;9.43;;;3.90;;
23714;SDS011;12036;50.858;4.472;2023-05-07T02:52:25;7.32;;;3.55;;
23714;SDS011;12036;50.858;4.472;2023-05-07T02:54:51;7.05;;;3.78;;
23714;SDS011;12036;50.858;4.472;2023-05-07T02:57:16;9.85;;;4.50;;
23714;SDS011;12036;50.858;4.472;2023-05-07T02:59:42;12.52;;;4.00;;
23714;SDS011;12036;50.858;4.472;2023-05-07T03:02:08;6.30;;;3.72;;
23714;SDS011;12036;50.858;4.472;2023-05-07T03:04:34;11.18;;;3.92;;
23714;SDS011;12036;50.858;4.472;2023-05-07T03:06:59;6.65;;;3.97;;
23714;SDS011;12036;50.858;4.472;2023-05-07T03:09:25;9.40;;;4.20;;
23714;SDS011;12036;50.858;4.472;2023-05-07T03:11:51;7.88;;;4.07;;
23714;SDS011;12036;50.858;4.472;2023-05-07T03:14:16;7.45;;;3.67;;
23714;SDS011;12036;50.858;4.472;2023-05-07T03:16:42;10.43;;;3.95;;
23714;SDS011;12036;50.858;4.472;2023-05-07T03:19:08;7.97;;;3.80;;
23714;SDS011;12036;50.858;4.472;2023-05-07T03:21:33;8.52;;;3.83;;
23714;SDS011;12036;50.858;4.472;2023-05-07T03:23:59;6.40;;;3.97;;
23714;SDS011;12036;50.858;4.472;2023-05-07T03:26:25;12.95;;;4.40;;
23714;SDS011;12036;50.858;4.472;2023-05-07T03:28:51;10.40;;;3.97;;
23714;SDS011;12036;50.858;4.472;2023-05-07T03:31:17;7.38;;;3.55;;
23714;SDS011;12036;50.858;4.472;2023-05-07T03:33:53;7.13;;;4.18;;
23714;SDS011;12036;50.858;4.472;2023-05-07T03:36:20;6.38;;;3.53;;
23714;SDS011;12036;50.858;4.472;2023-05-07T03:38:46;5.65;;;3.88;;
23714;SDS011;12036;50.858;4.472;2023-05-07T03:41:12;8.60;;;4.10;;
23714;SDS011;12036;50.858;4.472;2023-05-07T03:43:38;5.60;;;3.40;;
23714;SDS011;12036;50.858;4.472;2023-05-07T03:46:04;6.50;;;4.07;;
23714;SDS011;12036;50.858;4.472;2023-05-07T03:48:30;7.25;;;4.15;;
23714;SDS011;12036;50.858;4.472;2023-05-07T03:50:55;6.65;;;3.80;;
23714;SDS011;12036;50.858;4.472;2023-05-07T03:53:22;10.75;;;4.15;;
23714;SDS011;12036;50.858;4.472;2023-05-07T03:55:48;9.80;;;3.90;;
23714;SDS011;12036;50.858;4.472;2023-05-07T03:58:13;7.72;;;3.72;;
23714;SDS011;12036;50.858;4.472;2023-05-07T04:00:39;12.52;;;4.47;;
23714;SDS011;12036;50.858;4.472;2023-05-07T04:03:05;7.32;;;4.07;;
23714;SDS011;12036;50.858;4.472;2023-05-07T04:05:31;7.68;;;4.07;;
23714;SDS011;12036;50.858;4.472;2023-05-07T04:07:57;9.20;;;4.43;;
23714;SDS011;12036;50.858;4.472;2023-05-07T04:10:24;6.63;;;4.13;;
23714;SDS011;12036;50.858;4.472;2023-05-07T04:12:49;10.18;;;4.47;;
23714;SDS011;12036;50.858;4.472;2023-05-07T04:15:15;9.05;;;4.05;;
23714;SDS011;12036;50.858;4.472;2023-05-07T04:17:41;13.38;;;4.25;;
23714;SDS011;12036;50.858;4.472;2023-05-07T04:20:08;9.05;;;4.55;;
23714;SDS011;12036;50.858;4.472;2023-05-07T04:22:35;7.93;;;4.32;;
23714;SDS011;12036;50.858;4.472;2023-05-07T04:25:02;8.05;;;4.38;;
23714;SDS011;12036;50.858;4.472;2023-05-07T04:27:28;7.97;;;4.00;;
23714;SDS011;12036;50.858;4.472;2023-05-07T04:29:54;9.00;;;4.32;;
23714;SDS011;12036;50.858;4.472;2023-05-07T04:32:21;6.28;;;3.97;;
23714;SDS011;12036;50.858;4.472;2023-05-07T04:34:47;8.20;;;4.78;;
23714;SDS011;12036;50.858;4.472;2023-05-07T04:37:13;8.63;;;5.10;;
23714;SDS011;12036;50.858;4.472;2023-05-07T04:39:38;9.77;;;4.93;;
23714;SDS011;12036;50.858;4.472;2023-05-07T04:42:04;7.30;;;5.10;;
23714;SDS011;12036;50.858;4.472;2023-05-07T04:44:33;5.97;;;4.07;;
23714;SDS011;12036;50.858;4.472;2023-05-07T04:47:00;8.93;;;4.72;;
23714;SDS011;12036;50.858;4.472;2023-05-07T04:49:25;10.23;;;5.28;;
23714;SDS011;12036;50.858;4.472;2023-05-07T04:51:51;11.88;;;4.40;;
23714;SDS011;12036;50.858;4.472;2023-05-07T04:54:17;7.88;;;4.57;;
23714;SDS011;12036;50.858;4.472;2023-05-07T04:56:42;9.52;;;4.88;;
23714;SDS011;12036;50.858;4.472;2023-05-07T04:59:08;8.02;;;4.45;;
23714;SDS011;12036;50.858;4.472;2023-05-07T05:01:34;8.27;;;4.40;;
23714;SDS011;12036;50.858;4.472;2023-05-07T05:03:59;8.82;;;4.95;;
23714;SDS011;12036;50.858;4.472;2023-05-07T05:06:25;10.68;;;4.65;;
23714;SDS011;12036;50.858;4.472;2023-05-07T05:08:51;9.52;;;4.40;;
23714;SDS011;12036;50.858;4.472;2023-05-07T05:11:17;7.68;;;4.82;;
23714;SDS011;12036;50.858;4.472;2023-05-07T05:13:42;7.40;;;4.68;;
23714;SDS011;12036;50.858;4.472;2023-05-07T05:16:08;9.60;;;4.90;;
23714;SDS011;12036;50.858;4.472;2023-05-07T05:18:34;11.73;;;4.50;;
23714;SDS011;12036;50.858;4.472;2023-05-07T05:21:00;11.45;;;4.97;;
23714;SDS011;12036;50.858;4.472;2023-05-07T05:23:25;9.15;;;4.68;;
23714;SDS011;12036;50.858;4.472;2023-05-07T05:25:55;9.95;;;4.25;;
23714;SDS011;12036;50.858;4.472;2023-05-07T05:28:23;9.27;;;4.47;;
23714;SDS011;12036;50.858;4.472;2023-05-07T05:30:49;11.80;;;4.35;;
23714;SDS011;12036;50.858;4.472;2023-05-07T05:33:15;8.10;;;4.35;;
23714;SDS011;12036;50.858;4.472;2023-05-07T05:35:41;12.27;;;4.82;;
23714;SDS011;12036;50.858;4.472;2023-05-07T05:38:07;9.77;;;4.18;;
23714;SDS011;12036;50.858;4.472;2023-05-07T05:40:33;8.82;;;4.20;;
23714;SDS011;12036;50.858;4.472;2023-05-07T05:42:58;6.45;;;4.22;;
23714;SDS011;12036;50.858;4.472;2023-05-07T05:45:24;7.10;;;4.10;;
23714;SDS011;12036;50.858;4.472;2023-05-07T05:47:50;12.30;;;4.70;;
23714;SDS011;12036;50.858;4.472;2023-05-07T05:50:16;6.55;;;4.18;;
23714;SDS011;12036;50.858;4.472;2023-05-07T05:52:42;7.35;;;4.22;;
23714;SDS011;12036;50.858;4.472;2023-05-07T05:55:08;9.13;;;4.50;;
23714;SDS011;12036;50.858;4.472;2023-05-07T05:57:34;8.50;;;4.00;;
23714;SDS011;12036;50.858;4.472;2023-05-07T06:00:00;10.23;;;4.38;;
23714;SDS011;12036;50.858;4.472;2023-05-07T06:02:27;8.35;;;4.35;;
23714;SDS011;12036;50.858;4.472;2023-05-07T06:04:53;7.53;;;4.07;;
23714;SDS011;12036;50.858;4.472;2023-05-07T06:07:18;8.25;;;4.40;;
23714;SDS011;12036;50.858;4.472;2023-05-07T06:09:44;8.50;;;4.60;;
23714;SDS011;12036;50.858;4.472;2023-05-07T06:12:10;12.95;;;4.63;;
23714;SDS011;12036;50.858;4.472;2023-05-07T06:14:36;7.60;;;4.00;;
23714;SDS011;12036;50.858;4.472;2023-05-07T06:17:02;12.00;;;3.75;;
23714;SDS011;12036;50.858;4.472;2023-05-07T06:19:27;7.30;;;3.95;;
23714;SDS011;12036;50.858;4.472;2023-05-07T06:21:53;6.88;;;4.15;;
23714;SDS011;12036;50.858;4.472;2023-05-07T06:24:19;9.95;;;3.70;;
23714;SDS011;12036;50.858;4.472;2023-05-07T06:26:44;8.27;;;3.28;;
23714;SDS011;12036;50.858;4.472;2023-05-07T06:29:10;9.80;;;3.42;;
23714;SDS011;12036;50.858;4.472;2023-05-07T06:31:36;11.70;;;3.40;;
23714;SDS011;12036;50.858;4.472;2023-05-07T06:34:01;9.05;;;3.80;;
23714;SDS011;12036;50.858;4.472;2023-05-07T06:36:27;6.45;;;3.17;;
23714;SDS011;12036;50.858;4.472;2023-05-07T06:38:53;9.20;;;3.13;;
23714;SDS011;12036;50.858;4.472;2023-05-07T06:41:19;6.88;;;2.97;;
23714;SDS011;12036;50.858;4.472;2023-05-07T06:43:45;9.55;;;2.33;;
23714;SDS011;12036;50.858;4.472;2023-05-07T06:46:11;8.05;;;2.92;;
23714;SDS011;12036;50.858;4.472;2023-05-07T06:48:36;8.65;;;2.90;;
23714;SDS011;12036;50.858;4.472;2023-05-07T06:51:02;5.35;;;2.63;;
23714;SDS011;12036;50.858;4.472;2023-05-07T06:53:28;8.55;;;2.90;;
23714;SDS011;12036;50.858;4.472;2023-05-07T06:55:55;6.70;;;2.72;;
23714;SDS011;12036;50.858;4.472;2023-05-07T06:58:21;12.00;;;3.30;;
23714;SDS011;12036;50.858;4.472;2023-05-07T07:00:47;6.55;;;2.92;;
23714;SDS011;12036;50.858;4.472;2023-05-07T07:03:12;6.28;;;2.65;;
23714;SDS011;12036;50.858;4.472;2023-05-07T07:05:40;5.75;;;3.08;;
23714;SDS011;12036;50.858;4.472;2023-05-07T07:08:06;6.78;;;2.65;;
23714;SDS011;12036;50.858;4.472;2023-05-07T07:10:32;7.75;;;2.80;;
23714;SDS011;12036;50.858;4.472;2023-05-07T07:12:57;7.80;;;2.78;;
23714;SDS011;12036;50.858;4.472;2023-05-07T07:15:23;5.22;;;2.83;;
23714;SDS011;12036;50.858;4.472;2023-05-07T07:17:50;6.80;;;3.10;;
23714;SDS011;12036;50.858;4.472;2023-05-07T07:20:16;6.60;;;2.58;;
23714;SDS011;12036;50.858;4.472;2023-05-07T07:22:41;5.40;;;2.60;;
23714;SDS011;12036;50.858;4.472;2023-05-07T07:25:07;6.03;;;2.50;;
23714;SDS011;12036;50.858;4.472;2023-05-07T07:27:33;7.55;;;2.53;;
23714;SDS011;12036;50.858;4.472;2023-05-07T07:29:59;6.95;;;3.13;;
23714;SDS011;12036;50.858;4.472;2023-05-07T07:32:25;4.43;;;2.53;;
23714;SDS011;12036;50.858;4.472;2023-05-07T07:34:51;9.57;;;3.38;;
23714;SDS011;12036;50.858;4.472;2023-05-07T07:37:16;8.25;;;3.08;;
23714;SDS011;12036;50.858;4.472;2023-05-07T07:39:42;6.35;;;2.97;;
23714;SDS011;12036;50.858;4.472;2023-05-07T07:42:07;7.30;;;3.22;;
23714;SDS011;12036;50.858;4.472;2023-05-07T07:44:33;6.43;;;3.08;;
23714;SDS011;12036;50.858;4.472;2023-05-07T07:46:59;6.15;;;2.90;;
23714;SDS011;12036;50.858;4.472;2023-05-07T07:49:24;6.15;;;3.08;;
23714;SDS011;12036;50.858;4.472;2023-05-07T07:51:50;7.70;;;2.90;;
23714;SDS011;12036;50.858;4.472;2023-05-07T07:54:16;9.50;;;3.00;;
23714;SDS011;12036;50.858;4.472;2023-05-07T07:56:41;6.55;;;2.72;;
23714;SDS011;12036;50.858;4.472;2023-05-07T07:59:07;9.55;;;2.90;;
23714;SDS011;12036;50.858;4.472;2023-05-07T08:01:33;6.60;;;2.70;;
23714;SDS011;12036;50.858;4.472;2023-05-07T08:03:58;4.93;;;2.55;;
23714;SDS011;12036;50.858;4.472;2023-05-07T08:06:24;4.93;;;2.35;;
23714;SDS011;12036;50.858;4.472;2023-05-07T08:08:53;6.90;;;2.92;;
23714;SDS011;12036;50.858;4.472;2023-05-07T08:11:19;7.82;;;2.97;;
23714;SDS011;12036;50.858;4.472;2023-05-07T08:13:45;8.90;;;2.88;;
23714;SDS011;12036;50.858;4.472;2023-05-07T08:16:11;5.30;;;3.00;;
23714;SDS011;12036;50.858;4.472;2023-05-07T08:18:37;5.47;;;2.83;;
23714;SDS011;12036;50.858;4.472;2023-05-07T08:21:02;9.27;;;3.05;;
23714;SDS011;12036;50.858;4.472;2023-05-07T08:23:28;7.00;;;3.05;;
23714;SDS011;12036;50.858;4.472;2023-05-07T08:25:54;8.50;;;3.47;;
23714;SDS011;12036;50.858;4.472;2023-05-07T08:28:19;6.38;;;3.22;;
23714;SDS011;12036;50.858;4.472;2023-05-07T08:30:46;10.18;;;3.20;;
23714;SDS011;12036;50.858;4.472;2023-05-07T08:33:12;5.97;;;3.45;;
23714;SDS011;12036;50.858;4.472;2023-05-07T08:35:38;10.38;;;3.28;;
23714;SDS011;12036;50.858;4.472;2023-05-07T08:38:03;5.85;;;3.00;;
23714;SDS011;12036;50.858;4.472;2023-05-07T08:40:29;7.82;;;3.22;;
23714;SDS011;12036;50.858;4.472;2023-05-07T08:43:01;8.38;;;3.22;;
23714;SDS011;12036;50.858;4.472;2023-05-07T08:45:28;3.97;;;2.90;;
23714;SDS011;12036;50.858;4.472;2023-05-07T08:47:58;8.52;;;3.10;;
23714;SDS011;12036;50.858;4.472;2023-05-07T08:50:24;6.53;;;3.40;;
23714;SDS011;12036;50.858;4.472;2023-05-07T08:52:50;5.05;;;3.08;;
23714;SDS011;12036;50.858;4.472;2023-05-07T08:55:16;4.47;;;3.22;;
23714;SDS011;12036;50.858;4.472;2023-05-07T08:57:42;5.55;;;2.95;;
23714;SDS011;12036;50.858;4.472;2023-05-07T09:00:08;9.23;;;3.03;;
23714;SDS011;12036;50.858;4.472;2023-05-07T09:02:35;6.70;;;3.20;;
23714;SDS011;12036;50.858;4.472;2023-05-07T09:05:01;10.90;;;4.07;;
23714;SDS011;12036;50.858;4.472;2023-05-07T09:07:28;8.70;;;3.67;;
23714;SDS011;12036;50.858;4.472;2023-05-07T09:09:54;8.60;;;3.58;;
23714;SDS011;12036;50.858;4.472;2023-05-07T09:12:20;6.57;;;4.00;;
23714;SDS011;12036;50.858;4.472;2023-05-07T09:14:46;8.13;;;4.10;;
23714;SDS011;12036;50.858;4.472;2023-05-07T09:17:12;6.25;;;4.22;;
23714;SDS011;12036;50.858;4.472;2023-05-07T09:19:38;7.75;;;4.40;;
23714;SDS011;12036;50.858;4.472;2023-05-07T09:22:05;6.35;;;4.43;;
23714;SDS011;12036;50.858;4.472;2023-05-07T09:24:33;8.25;;;4.38;;
23714;SDS011;12036;50.858;4.472;2023-05-07T09:27:01;8.95;;;4.82;;
23714;SDS011;12036;50.858;4.472;2023-05-07T09:29:27;7.45;;;4.50;;
23714;SDS011;12036;50.858;4.472;2023-05-07T09:31:55;7.20;;;4.03;;
23714;SDS011;12036;50.858;4.472;2023-05-07T09:34:21;8.10;;;5.07;;
23714;SDS011;12036;50.858;4.472;2023-05-07T09:36:47;5.68;;;4.35;;
23714;SDS011;12036;50.858;4.472;2023-05-07T09:39:13;12.60;;;5.10;;
23714;SDS011;12036;50.858;4.472;2023-05-07T09:41:45;9.32;;;4.68;;
23714;SDS011;12036;50.858;4.472;2023-05-07T09:44:12;5.68;;;4.55;;
23714;SDS011;12036;50.858;4.472;2023-05-07T09:46:39;11.40;;;5.07;;
23714;SDS011;12036;50.858;4.472;2023-05-07T09:49:08;7.97;;;5.13;;
23714;SDS011;12036;50.858;4.472;2023-05-07T09:51:46;7.90;;;5.43;;
23714;SDS011;12036;50.858;4.472;2023-05-07T09:54:14;8.13;;;4.95;;
23714;SDS011;12036;50.858;4.472;2023-05-07T09:56:40;7.65;;;4.40;;
23714;SDS011;12036;50.858;4.472;2023-05-07T09:59:12;11.00;;;4.35;;
23714;SDS011;12036;50.858;4.472;2023-05-07T10:01:40;12.07;;;4.22;;
23714;SDS011;12036;50.858;4.472;2023-05-07T10:04:07;7.57;;;3.58;;
23714;SDS011;12036;50.858;4.472;2023-05-07T10:06:34;6.95;;;3.78;;
23714;SDS011;12036;50.858;4.472;2023-05-07T10:09:00;7.85;;;3.60;;
23714;SDS011;12036;50.858;4.472;2023-05-07T10:11:26;11.70;;;3.70;;
23714;SDS011;12036;50.858;4.472;2023-05-07T10:13:53;9.50;;;4.10;;
23714;SDS011;12036;50.858;4.472;2023-05-07T10:16:19;7.22;;;3.70;;
23714;SDS011;12036;50.858;4.472;2023-05-07T10:18:46;4.30;;;2.60;;
23714;SDS011;12036;50.858;4.472;2023-05-07T10:21:16;7.18;;;3.15;;
23714;SDS011;12036;50.858;4.472;2023-05-07T10:23:51;3.70;;;2.73;;
23714;SDS011;12036;50.858;4.472;2023-05-07T10:26:35;5.07;;;2.63;;
23714;SDS011;12036;50.858;4.472;2023-05-07T10:29:07;5.47;;;2.80;;
23714;SDS011;12036;50.858;4.472;2023-05-07T10:34:23;6.75;;;2.75;;
23714;SDS011;12036;50.858;4.472;2023-05-07T10:36:54;3.92;;;3.15;;
23714;SDS011;12036;50.858;4.472;2023-05-07T10:39:21;5.85;;;2.50;;
23714;SDS011;12036;50.858;4.472;2023-05-07T10:41:48;5.07;;;2.63;;
23714;SDS011;12036;50.858;4.472;2023-05-07T10:44:29;6.93;;;2.65;;
23714;SDS011;12036;50.858;4.472;2023-05-07T10:47:16;5.78;;;2.65;;
23714;SDS011;12036;50.858;4.472;2023-05-07T10:52:15;5.70;;;2.20;;
23714;SDS011;12036;50.858;4.472;2023-05-07T10:54:46;6.80;;;2.13;;
23714;SDS011;12036;50.858;4.472;2023-05-07T11:00:00;5.60;;;2.60;;
23714;SDS011;12036;50.858;4.472;2023-05-07T11:05:23;3.60;;;2.00;;
23714;SDS011;12036;50.858;4.472;2023-05-07T11:07:56;6.55;;;2.22;;
23714;SDS011;12036;50.858;4.472;2023-05-07T11:11:08;4.32;;;2.35;;
23714;SDS011;12036;50.858;4.472;2023-05-07T11:13:16;5.47;;;2.20;;
23714;SDS011;12036;50.858;4.472;2023-05-07T11:15:46;3.15;;;1.98;;
23714;SDS011;12036;50.858;4.472;2023-05-07T11:18:13;6.68;;;2.10;;
23714;SDS011;12036;50.858;4.472;2023-05-07T11:20:50;6.72;;;2.65;;
23714;SDS011;12036;50.858;4.472;2023-05-07T11:26:10;4.97;;;2.50;;
23714;SDS011;12036;50.858;4.472;2023-05-07T11:28:36;8.85;;;2.97;;
23714;SDS011;12036;50.858;4.472;2023-05-07T11:31:03;4.63;;;2.80;;
23714;SDS011;12036;50.858;4.472;2023-05-07T11:33:30;4.30;;;2.20;;
23714;SDS011;12036;50.858;4.472;2023-05-07T11:35:56;4.18;;;1.80;;
23714;SDS011;12036;50.858;4.472;2023-05-07T11:38:22;2.85;;;1.73;;
23714;SDS011;12036;50.858;4.472;2023-05-07T11:40:51;3.63;;;2.13;;
23714;SDS011;12036;50.858;4.472;2023-05-07T11:43:18;4.40;;;2.25;;
23714;SDS011;12036;50.858;4.472;2023-05-07T11:45:47;7.07;;;2.30;;
23714;SDS011;12036;50.858;4.472;2023-05-07T11:48:13;3.33;;;1.85;;
23714;SDS011;12036;50.858;4.472;2023-05-07T11:53:27;4.43;;;2.40;;
23714;SDS011;12036;50.858;4.472;2023-05-07T11:56:00;4.15;;;2.10;;
23714;SDS011;12036;50.858;4.472;2023-05-07T11:58:30;2.85;;;2.13;;
23714;SDS011;12036;50.858;4.472;2023-05-07T12:00:56;5.30;;;2.50;;
23714;SDS011;12036;50.858;4.472;2023-05-07T12:03:22;3.28;;;1.92;;
23714;SDS011;12036;50.858;4.472;2023-05-07T12:05:47;4.07;;;2.70;;
23714;SDS011;12036;50.858;4.472;2023-05-07T12:08:20;5.93;;;2.42;;
23714;SDS011;12036;50.858;4.472;2023-05-07T12:10:48;4.25;;;2.30;;
23714;SDS011;12036;50.858;4.472;2023-05-07T12:13:22;2.83;;;2.15;;
23714;SDS011;12036;50.858;4.472;2023-05-07T12:15:52;4.82;;;2.50;;
23714;SDS011;12036;50.858;4.472;2023-05-07T12:18:18;3.75;;;2.00;;
23714;SDS011;12036;50.858;4.472;2023-05-07T12:20:45;7.28;;;2.20;;
23714;SDS011;12036;50.858;4.472;2023-05-07T12:23:12;3.63;;;1.90;;
23714;SDS011;12036;50.858;4.472;2023-05-07T12:25:38;5.32;;;1.92;;
23714;SDS011;12036;50.858;4.472;2023-05-07T12:28:05;4.25;;;2.40;;
23714;SDS011;12036;50.858;4.472;2023-05-07T12:30:36;2.40;;;1.80;;
23714;SDS011;12036;50.858;4.472;2023-05-07T12:33:02;4.45;;;2.00;;
23714;SDS011;12036;50.858;4.472;2023-05-07T12:35:28;1.95;;;1.80;;
23714;SDS011;12036;50.858;4.472;2023-05-07T12:37:58;3.25;;;1.70;;
23714;SDS011;12036;50.858;4.472;2023-05-07T12:40:38;5.15;;;2.00;;
23714;SDS011;12036;50.858;4.472;2023-05-07T12:43:04;3.63;;;2.00;;
23714;SDS011;12036;50.858;4.472;2023-05-07T12:45:30;4.22;;;1.88;;
23714;SDS011;12036;50.858;4.472;2023-05-07T12:47:56;3.13;;;1.90;;
23714;SDS011;12036;50.858;4.472;2023-05-07T12:50:25;3.22;;;1.70;;
23714;SDS011;12036;50.858;4.472;2023-05-07T12:52:55;6.72;;;2.03;;
23714;SDS011;12036;50.858;4.472;2023-05-07T12:55:21;2.22;;;1.73;;
23714;SDS011;12036;50.858;4.472;2023-05-07T12:57:50;4.95;;;1.90;;
23714;SDS011;12036;50.858;4.472;2023-05-07T13:00:17;4.10;;;2.33;;
23714;SDS011;12036;50.858;4.472;2023-05-07T13:02:58;4.57;;;2.10;;
23714;SDS011;12036;50.858;4.472;2023-05-07T13:05:23;2.90;;;2.00;;
23714;SDS011;12036;50.858;4.472;2023-05-07T13:07:52;5.18;;;2.17;;
23714;SDS011;12036;50.858;4.472;2023-05-07T13:10:19;5.18;;;1.92;;
23714;SDS011;12036;50.858;4.472;2023-05-07T13:12:45;2.88;;;2.08;;
23714;SDS011;12036;50.858;4.472;2023-05-07T13:15:10;6.63;;;3.08;;
23714;SDS011;12036;50.858;4.472;2023-05-07T13:17:36;5.22;;;2.88;;
23714;SDS011;12036;50.858;4.472;2023-05-07T13:20:02;3.38;;;2.20;;
23714;SDS011;12036;50.858;4.472;2023-05-07T13:22:28;3.08;;;2.13;;
23714;SDS011;12036;50.858;4.472;2023-05-07T13:24:53;5.18;;;2.50;;
23714;SDS011;12036;50.858;4.472;2023-05-07T13:27:19;8.55;;;5.07;;
23714;SDS011;12036;50.858;4.472;2023-05-07T13:29:45;3.35;;;2.30;;
23714;SDS011;12036;50.858;4.472;2023-05-07T13:32:10;4.28;;;2.15;;
23714;SDS011;12036;50.858;4.472;2023-05-07T13:34:36;5.82;;;2.70;;
23714;SDS011;12036;50.858;4.472;2023-05-07T13:37:02;4.05;;;2.47;;
23714;SDS011;12036;50.858;4.472;2023-05-07T13:39:27;3.90;;;2.95;;
23714;SDS011;12036;50.858;4.472;2023-05-07T13:41:53;3.92;;;2.75;;
23714;SDS011;12036;50.858;4.472;2023-05-07T13:44:19;2.65;;;2.33;;
23714;SDS011;12036;50.858;4.472;2023-05-07T13:46:44;3.08;;;2.75;;
23714;SDS011;12036;50.858;4.472;2023-05-07T13:49:10;4.68;;;3.45;;
23714;SDS011;12036;50.858;4.472;2023-05-07T13:51:37;5.22;;;3.90;;
23714;SDS011;12036;50.858;4.472;2023-05-07T13:54:03;6.63;;;3.78;;
23714;SDS011;12036;50.858;4.472;2023-05-07T13:56:29;7.30;;;4.03;;
23714;SDS011;12036;50.858;4.472;2023-05-07T13:58:57;7.43;;;4.18;;
23714;SDS011;12036;50.858;4.472;2023-05-07T14:01:23;5.05;;;4.55;;
23714;SDS011;12036;50.858;4.472;2023-05-07T14:03:48;5.32;;;4.35;;
23714;SDS011;12036;50.858;4.472;2023-05-07T14:06:14;6.47;;;5.07;;
23714;SDS011;12036;50.858;4.472;2023-05-07T14:08:40;5.55;;;4.65;;
23714;SDS011;12036;50.858;4.472;2023-05-07T14:11:05;7.25;;;5.68;;
23714;SDS011;12036;50.858;4.472;2023-05-07T14:13:31;7.72;;;5.85;;
23714;SDS011;12036;50.858;4.472;2023-05-07T14:15:57;6.95;;;5.85;;
23714;SDS011;12036;50.858;4.472;2023-05-07T14:18:23;7.13;;;6.03;;
23714;SDS011;12036;50.858;4.472;2023-05-07T14:20:48;7.70;;;6.05;;
23714;SDS011;12036;50.858;4.472;2023-05-07T14:23:14;8.38;;;5.95;;
23714;SDS011;12036;50.858;4.472;2023-05-07T14:25:42;6.35;;;5.70;;
23714;SDS011;12036;50.858;4.472;2023-05-07T14:28:08;8.50;;;7.03;;
23714;SDS011;12036;50.858;4.472;2023-05-07T14:30:34;9.57;;;6.18;;
23714;SDS011;12036;50.858;4.472;2023-05-07T14:33:00;9.35;;;7.15;;
23714;SDS011;12036;50.858;4.472;2023-05-07T14:35:25;7.50;;;6.80;;
23714;SDS011;12036;50.858;4.472;2023-05-07T14:37:51;8.35;;;6.93;;
23714;SDS011;12036;50.858;4.472;2023-05-07T14:40:16;8.32;;;6.70;;
23714;SDS011;12036;50.858;4.472;2023-05-07T14:42:42;7.88;;;6.90;;
23714;SDS011;12036;50.858;4.472;2023-05-07T14:45:08;9.13;;;7.18;;
23714;SDS011;12036;50.858;4.472;2023-05-07T14:47:34;7.40;;;6.55;;
23714;SDS011;12036;50.858;4.472;2023-05-07T14:50:00;7.80;;;7.00;;
23714;SDS011;12036;50.858;4.472;2023-05-07T14:52:26;7.78;;;6.53;;
23714;SDS011;12036;50.858;4.472;2023-05-07T14:54:51;8.20;;;6.88;;
23714;SDS011;12036;50.858;4.472;2023-05-07T14:57:17;7.88;;;6.88;;
23714;SDS011;12036;50.858;4.472;2023-05-07T14:59:44;8.07;;;7.28;;